sensor_id;sensor_type;location;lat;lon;timestamp;pressure;altitude;pressure_sealevel;temperature;humidity
55010;BME280;40903;51.638;7.528;2023-07-13T00:00:17;100828.63;;;17.21;90.97
55010;BME280;40903;51.638;7.528;2023-07-13T00:02:43;100838.34;;;17.18;91.01
55010;BME280;40903;51.638;7.528;2023-07-13T00:05:09;100846.81;;;17.13;91.12
55010;BME280;40903;51.638;7.528;2023-07-13T00:07:35;100846.66;;;17.10;91.98
55010;BME280;40903;51.638;7.528;2023-07-13T00:10:02;100849.41;;;17.10;92.40
55010;BME280;40903;51.638;7.528;2023-07-13T00:12:33;100849.41;;;17.10;92.64
55010;BME280;40903;51.638;7.528;2023-07-13T00:15:00;100859.28;;;17.11;92.61
55010;BME280;40903;51.638;7.528;2023-07-13T00:17:28;100862.03;;;17.11;92.29
55010;BME280;40903;51.638;7.528;2023-07-13T00:19:55;100858.16;;;17.12;91.63
55010;BME280;40903;51.638;7.528;2023-07-13T00:22:21;100853.78;;;17.11;90.91
55010;BME280;40903;51.638;7.528;2023-07-13T00:24:48;100857.03;;;17.13;90.70
55010;BME280;40903;51.638;7.528;2023-07-13T00:27:14;100850.41;;;17.14;90.77
55010;BME280;40903;51.638;7.528;2023-07-13T00:29:39;100852.31;;;17.13;89.85
55010;BME280;40903;51.638;7.528;2023-07-13T00:32:05;100853.94;;;17.14;89.12
55010;BME280;40903;51.638;7.528;2023-07-13T00:34:32;100860.59;;;17.13;88.04
55010;BME280;40903;51.638;7.528;2023-07-13T00:36:58;100852.81;;;17.15;86.47
55010;BME280;40903;51.638;7.528;2023-07-13T00:39:23;100854.28;;;17.13;86.32
55010;BME280;40903;51.638;7.528;2023-07-13T00:41:49;100851.84;;;17.11;85.80
55010;BME280;40903;51.638;7.528;2023-07-13T00:44:16;100846.84;;;17.05;85.54
55010;BME280;40903;51.638;7.528;2023-07-13T00:46:42;100852.69;;;17.03;85.40
55010;BME280;40903;51.638;7.528;2023-07-13T00:49:09;100847.66;;;16.97;85.32
55010;BME280;40903;51.638;7.528;2023-07-13T00:51:56;100853.72;;;16.90;85.95
55010;BME280;40903;51.638;7.528;2023-07-13T00:54:38;100861.66;;;16.83;86.69
55010;BME280;40903;51.638;7.528;2023-07-13T00:57:08;100854.72;;;16.77;87.19
55010;BME280;40903;51.638;7.528;2023-07-13T00:59:36;100857.16;;;16.70;87.83
55010;BME280;40903;51.638;7.528;2023-07-13T01:02:04;100853.75;;;16.65;88.77
55010;BME280;40903;51.638;7.528;2023-07-13T01:04:29;100859.44;;;16.60;89.50
55010;BME280;40903;51.638;7.528;2023-07-13T01:06:55;100854.44;;;16.53;89.72
55010;BME280;40903;51.638;7.528;2023-07-13T01:09:22;100855.41;;;16.49;89.35
55010;BME280;40903;51.638;7.528;2023-07-13T01:11:48;100851.22;;;16.43;89.41
55010;BME280;40903;51.638;7.528;2023-07-13T01:14:13;100848.94;;;16.36;89.42
55010;BME280;40903;51.638;7.528;2023-07-13T01:16:40;100847.97;;;16.32;89.40
55010;BME280;40903;51.638;7.528;2023-07-13T01:19:33;100840.66;;;16.28;90.15
55010;BME280;40903;51.638;7.528;2023-07-13T01:22:01;100845.03;;;16.20;90.20
55010;BME280;40903;51.638;7.528;2023-07-13T01:24:26;100838.88;;;16.15;90.46
55010;BME280;40903;51.638;7.528;2023-07-13T01:26:51;100855.22;;;16.11;90.43
55010;BME280;40903;51.638;7.528;2023-07-13T01:29:17;100847.16;;;16.06;90.54
55010;BME280;40903;51.638;7.528;2023-07-13T01:31:45;100846.19;;;16.02;90.72
55010;BME280;40903;51.638;7.528;2023-07-13T01:34:10;100847.44;;;15.96;90.91
55010;BME280;40903;51.638;7.528;2023-07-13T01:36:35;100852.00;;;15.92;91.03
55010;BME280;40903;51.638;7.528;2023-07-13T01:39:01;100856.53;;;15.88;91.30
55010;BME280;40903;51.638;7.528;2023-07-13T01:41:26;100856.66;;;15.83;91.25
55010;BME280;40903;51.638;7.528;2023-07-13T01:43:51;100854.56;;;15.80;89.66
55010;BME280;40903;51.638;7.528;2023-07-13T01:46:17;100858.25;;;15.76;87.81
55010;BME280;40903;51.638;7.528;2023-07-13T01:48:42;100851.97;;;15.76;87.45
55010;BME280;40903;51.638;7.528;2023-07-13T01:51:07;100851.78;;;15.72;86.76
55010;BME280;40903;51.638;7.528;2023-07-13T01:53:33;100849.69;;;15.69;85.59
55010;BME280;40903;51.638;7.528;2023-07-13T01:55:58;100851.63;;;15.69;85.41
55010;BME280;40903;51.638;7.528;2023-07-13T01:58:23;100861.00;;;15.68;85.05
55010;BME280;40903;51.638;7.528;2023-07-13T02:00:49;100871.69;;;15.69;84.69
55010;BME280;40903;51.638;7.528;2023-07-13T02:03:15;100862.94;;;15.67;84.79
55010;BME280;40903;51.638;7.528;2023-07-13T02:05:43;100866.00;;;15.66;85.66
55010;BME280;40903;51.638;7.528;2023-07-13T02:08:08;100866.34;;;15.64;85.48
55010;BME280;40903;51.638;7.528;2023-07-13T02:10:33;100865.53;;;15.64;84.65
55010;BME280;40903;51.638;7.528;2023-07-13T02:12:59;100873.28;;;15.62;84.45
55010;BME280;40903;51.638;7.528;2023-07-13T02:15:24;100875.22;;;15.61;84.23
55010;BME280;40903;51.638;7.528;2023-07-13T02:17:49;100867.31;;;15.60;84.04
55010;BME280;40903;51.638;7.528;2023-07-13T02:20:14;100868.44;;;15.59;84.13
55010;BME280;40903;51.638;7.528;2023-07-13T02:22:40;100875.06;;;15.58;84.68
55010;BME280;40903;51.638;7.528;2023-07-13T02:25:05;100873.75;;;15.55;85.00
55010;BME280;40903;51.638;7.528;2023-07-13T02:27:31;100871.31;;;15.54;85.39
55010;BME280;40903;51.638;7.528;2023-07-13T02:29:56;100879.72;;;15.49;85.08
55010;BME280;40903;51.638;7.528;2023-07-13T02:32:21;100869.34;;;15.46;84.66
55010;BME280;40903;51.638;7.528;2023-07-13T02:34:47;100871.63;;;15.44;84.88
55010;BME280;40903;51.638;7.528;2023-07-13T02:37:12;100862.06;;;15.41;84.95
55010;BME280;40903;51.638;7.528;2023-07-13T02:39:37;100856.56;;;15.41;84.58
55010;BME280;40903;51.638;7.528;2023-07-13T02:42:03;100862.72;;;15.38;84.56
55010;BME280;40903;51.638;7.528;2023-07-13T02:44:28;100861.09;;;15.37;84.32
55010;BME280;40903;51.638;7.528;2023-07-13T02:46:53;100861.41;;;15.36;84.04
55010;BME280;40903;51.638;7.528;2023-07-13T02:49:19;100855.59;;;15.37;84.04
55010;BME280;40903;51.638;7.528;2023-07-13T02:51:44;100861.56;;;15.39;83.54
55010;BME280;40903;51.638;7.528;2023-07-13T02:54:09;100861.41;;;15.36;84.02
55010;BME280;40903;51.638;7.528;2023-07-13T02:56:35;100867.22;;;15.34;84.28
55010;BME280;40903;51.638;7.528;2023-07-13T02:59:00;100865.91;;;15.32;84.74
55010;BME280;40903;51.638;7.528;2023-07-13T03:01:26;100866.03;;;15.27;84.70
55010;BME280;40903;51.638;7.528;2023-07-13T03:03:51;100867.16;;;15.26;85.16
55010;BME280;40903;51.638;7.528;2023-07-13T03:06:17;100876.84;;;15.23;85.26
55010;BME280;40903;51.638;7.528;2023-07-13T03:08:43;100883.47;;;15.22;85.22
55010;BME280;40903;51.638;7.528;2023-07-13T03:11:10;100886.53;;;15.21;84.83
55010;BME280;40903;51.638;7.528;2023-07-13T03:13:37;100888.78;;;15.19;85.05
55010;BME280;40903;51.638;7.528;2023-07-13T03:16:02;100885.84;;;15.15;85.18
55010;BME280;40903;51.638;7.528;2023-07-13T03:18:28;100881.00;;;15.12;86.10
55010;BME280;40903;51.638;7.528;2023-07-13T03:20:53;100887.59;;;15.11;86.04
55010;BME280;40903;51.638;7.528;2023-07-13T03:23:20;100884.06;;;15.11;86.64
55010;BME280;40903;51.638;7.528;2023-07-13T03:25:45;100884.66;;;15.08;87.34
55010;BME280;40903;51.638;7.528;2023-07-13T03:28:11;100900.53;;;15.11;86.73
55010;BME280;40903;51.638;7.528;2023-07-13T03:30:37;100890.84;;;15.13;86.28
55010;BME280;40903;51.638;7.528;2023-07-13T03:33:02;100896.66;;;15.12;86.62
55010;BME280;40903;51.638;7.528;2023-07-13T03:35:27;100902.97;;;15.12;87.15
55010;BME280;40903;51.638;7.528;2023-07-13T03:37:53;100907.97;;;15.10;87.12
55010;BME280;40903;51.638;7.528;2023-07-13T03:40:18;100909.09;;;15.09;88.27
55010;BME280;40903;51.638;7.528;2023-07-13T03:42:44;100908.09;;;15.05;88.16
55010;BME280;40903;51.638;7.528;2023-07-13T03:45:09;100903.75;;;15.04;88.37
55010;BME280;40903;51.638;7.528;2023-07-13T03:47:34;100895.50;;;15.04;88.79
55010;BME280;40903;51.638;7.528;2023-07-13T03:50:00;100903.75;;;15.04;88.65
55010;BME280;40903;51.638;7.528;2023-07-13T03:52:26;100905.66;;;15.04;88.60
55010;BME280;40903;51.638;7.528;2023-07-13T03:54:51;100913.91;;;15.04;88.45
55010;BME280;40903;51.638;7.528;2023-07-13T03:57:18;100918.28;;;15.05;88.51
55010;BME280;40903;51.638;7.528;2023-07-13T03:59:43;100916.22;;;15.10;88.53
55010;BME280;40903;51.638;7.528;2023-07-13T04:02:09;100924.16;;;15.12;88.28
55010;BME280;40903;51.638;7.528;2023-07-13T04:04:34;100928.19;;;15.14;89.02
55010;BME280;40903;51.638;7.528;2023-07-13T04:07:00;100922.69;;;15.14;88.86
55010;BME280;40903;51.638;7.528;2023-07-13T04:09:25;100921.88;;;15.14;89.50
55010;BME280;40903;51.638;7.528;2023-07-13T04:11:50;100927.88;;;15.16;89.53
55010;BME280;40903;51.638;7.528;2023-07-13T04:14:16;100928.19;;;15.14;89.44
55010;BME280;40903;51.638;7.528;2023-07-13T04:16:41;100929.50;;;15.17;89.51
55010;BME280;40903;51.638;7.528;2023-07-13T04:19:07;100925.31;;;15.19;89.56
55010;BME280;40903;51.638;7.528;2023-07-13T04:21:32;100929.03;;;15.23;90.17
55010;BME280;40903;51.638;7.528;2023-07-13T04:23:57;100934.22;;;15.25;89.78
55010;BME280;40903;51.638;7.528;2023-07-13T04:26:23;100935.84;;;15.26;89.83
55010;BME280;40903;51.638;7.528;2023-07-13T04:28:49;100931.63;;;15.28;89.86
55010;BME280;40903;51.638;7.528;2023-07-13T04:31:14;100937.06;;;15.33;90.20
55010;BME280;40903;51.638;7.528;2023-07-13T04:33:40;100933.97;;;15.35;89.85
55010;BME280;40903;51.638;7.528;2023-07-13T04:36:05;100938.81;;;15.38;89.88
55010;BME280;40903;51.638;7.528;2023-07-13T04:38:31;100940.97;;;15.41;89.63
55010;BME280;40903;51.638;7.528;2023-07-13T04:40:58;100935.31;;;15.46;89.67
55010;BME280;40903;51.638;7.528;2023-07-13T04:43:23;100936.28;;;15.50;89.52
55010;BME280;40903;51.638;7.528;2023-07-13T04:45:50;100934.41;;;15.59;89.36
55010;BME280;40903;51.638;7.528;2023-07-13T04:48:15;100942.00;;;15.62;89.13
55010;BME280;40903;51.638;7.528;2023-07-13T04:50:41;100945.72;;;15.66;89.07
55010;BME280;40903;51.638;7.528;2023-07-13T04:53:06;100945.63;;;15.71;88.46
55010;BME280;40903;51.638;7.528;2023-07-13T04:55:31;100942.72;;;15.76;88.59
55010;BME280;40903;51.638;7.528;2023-07-13T04:57:57;100939.50;;;15.82;88.64
55010;BME280;40903;51.638;7.528;2023-07-13T05:00:26;100936.13;;;15.93;88.62
55010;BME280;40903;51.638;7.528;2023-07-13T05:02:51;100942.28;;;16.07;87.95
55010;BME280;40903;51.638;7.528;2023-07-13T05:05:16;100940.88;;;16.27;87.61
55010;BME280;40903;51.638;7.528;2023-07-13T05:07:42;100940.44;;;16.42;85.79
55010;BME280;40903;51.638;7.528;2023-07-13T05:10:07;100944.16;;;16.63;84.62
55010;BME280;40903;51.638;7.528;2023-07-13T05:12:33;100949.63;;;16.80;86.07
55010;BME280;40903;51.638;7.528;2023-07-13T05:14:58;100952.88;;;16.99;84.34
55010;BME280;40903;51.638;7.528;2023-07-13T05:17:24;100946.34;;;17.12;83.39
55010;BME280;40903;51.638;7.528;2023-07-13T05:19:49;100948.56;;;17.27;83.80
55010;BME280;40903;51.638;7.528;2023-07-13T05:22:14;100954.72;;;17.41;83.25
55010;BME280;40903;51.638;7.528;2023-07-13T05:24:39;100956.81;;;17.52;82.98
55010;BME280;40903;51.638;7.528;2023-07-13T05:27:05;100954.00;;;17.61;81.86
55010;BME280;40903;51.638;7.528;2023-07-13T05:29:30;100960.75;;;17.72;82.22
55010;BME280;40903;51.638;7.528;2023-07-13T05:31:55;100968.00;;;17.84;81.76
55010;BME280;40903;51.638;7.528;2023-07-13T05:34:20;100969.75;;;17.89;79.69
55010;BME280;40903;51.638;7.528;2023-07-13T05:36:46;100976.84;;;17.98;77.89
55010;BME280;40903;51.638;7.528;2023-07-13T05:39:11;100967.44;;;17.99;78.12
55010;BME280;40903;51.638;7.528;2023-07-13T05:41:36;100973.09;;;18.03;78.77
55010;BME280;40903;51.638;7.528;2023-07-13T05:44:02;100976.97;;;18.10;80.65
55010;BME280;40903;51.638;7.528;2023-07-13T05:46:27;100978.03;;;18.18;79.53
55010;BME280;40903;51.638;7.528;2023-07-13T05:48:52;100981.06;;;18.25;79.00
55010;BME280;40903;51.638;7.528;2023-07-13T05:51:17;100974.75;;;18.24;78.47
55010;BME280;40903;51.638;7.528;2023-07-13T05:53:43;100981.41;;;18.32;78.82
55010;BME280;40903;51.638;7.528;2023-07-13T05:56:08;100980.41;;;18.36;77.66
55010;BME280;40903;51.638;7.528;2023-07-13T05:58:33;100980.19;;;18.41;78.36
55010;BME280;40903;51.638;7.528;2023-07-13T06:01:04;100973.59;;;18.54;78.27
55010;BME280;40903;51.638;7.528;2023-07-13T06:03:29;100976.44;;;18.66;78.18
55010;BME280;40903;51.638;7.528;2023-07-13T06:05:55;100976.34;;;18.75;75.57
55010;BME280;40903;51.638;7.528;2023-07-13T06:08:20;100988.63;;;18.86;75.77
55010;BME280;40903;51.638;7.528;2023-07-13T06:10:45;100987.19;;;19.00;76.25
55010;BME280;40903;51.638;7.528;2023-07-13T06:13:10;100988.25;;;19.08;73.80
55010;BME280;40903;51.638;7.528;2023-07-13T06:15:37;100989.72;;;19.26;74.66
55010;BME280;40903;51.638;7.528;2023-07-13T06:18:02;100982.03;;;19.43;74.16
55010;BME280;40903;51.638;7.528;2023-07-13T06:20:28;100987.28;;;19.69;74.64
55010;BME280;40903;51.638;7.528;2023-07-13T06:22:54;100983.81;;;19.84;71.04
55010;BME280;40903;51.638;7.528;2023-07-13T06:25:19;100984.28;;;19.97;71.90
55010;BME280;40903;51.638;7.528;2023-07-13T06:27:44;100982.34;;;20.10;70.37
55010;BME280;40903;51.638;7.528;2023-07-13T06:30:10;100994.56;;;20.21;70.91
55010;BME280;40903;51.638;7.528;2023-07-13T06:32:36;100997.81;;;20.23;69.44
55010;BME280;40903;51.638;7.528;2023-07-13T06:35:01;101007.84;;;20.39;70.40
55010;BME280;40903;51.638;7.528;2023-07-13T06:37:26;101013.91;;;20.57;69.29
55010;BME280;40903;51.638;7.528;2023-07-13T06:39:52;101016.47;;;20.62;69.57
55010;BME280;40903;51.638;7.528;2023-07-13T06:42:17;101020.47;;;20.64;69.47
55010;BME280;40903;51.638;7.528;2023-07-13T06:44:42;101015.63;;;20.73;69.57
55010;BME280;40903;51.638;7.528;2023-07-13T06:47:08;101021.97;;;20.74;69.23
55010;BME280;40903;51.638;7.528;2023-07-13T06:49:33;101018.84;;;20.87;68.30
55010;BME280;40903;51.638;7.528;2023-07-13T06:51:59;101019.44;;;20.69;67.58
55010;BME280;40903;51.638;7.528;2023-07-13T06:54:24;101032.97;;;20.58;68.75
55010;BME280;40903;51.638;7.528;2023-07-13T06:56:50;101033.56;;;20.52;69.44
55010;BME280;40903;51.638;7.528;2023-07-13T06:59:15;101030.88;;;20.67;70.26
55010;BME280;40903;51.638;7.528;2023-07-13T07:01:40;101029.81;;;20.84;67.34
55010;BME280;40903;51.638;7.528;2023-07-13T07:04:06;101033.56;;;21.03;67.00
55010;BME280;40903;51.638;7.528;2023-07-13T07:06:31;101031.88;;;21.26;66.57
55010;BME280;40903;51.638;7.528;2023-07-13T07:08:57;101033.34;;;21.51;67.85
55010;BME280;40903;51.638;7.528;2023-07-13T07:11:24;101038.50;;;21.37;65.81
55010;BME280;40903;51.638;7.528;2023-07-13T07:13:51;101035.16;;;21.59;65.97
55010;BME280;40903;51.638;7.528;2023-07-13T07:16:17;101040.06;;;21.93;65.45
55010;BME280;40903;51.638;7.528;2023-07-13T07:18:43;101043.88;;;22.19;63.56
55010;BME280;40903;51.638;7.528;2023-07-13T07:21:09;101032.53;;;22.09;61.25
55010;BME280;40903;51.638;7.528;2023-07-13T07:23:34;101035.53;;;22.35;62.78
55010;BME280;40903;51.638;7.528;2023-07-13T07:26:02;101036.81;;;22.22;62.21
55010;BME280;40903;51.638;7.528;2023-07-13T07:28:28;101031.06;;;22.15;60.67
55010;BME280;40903;51.638;7.528;2023-07-13T07:30:56;101024.56;;;22.38;61.31
55010;BME280;40903;51.638;7.528;2023-07-13T07:33:23;101036.94;;;22.60;62.45
55010;BME280;40903;51.638;7.528;2023-07-13T07:35:48;101037.13;;;22.86;60.92
55010;BME280;40903;51.638;7.528;2023-07-13T07:38:13;101028.25;;;23.15;60.33
55010;BME280;40903;51.638;7.528;2023-07-13T07:40:40;101030.72;;;23.39;58.98
55010;BME280;40903;51.638;7.528;2023-07-13T07:43:07;101031.44;;;23.55;57.89
55010;BME280;40903;51.638;7.528;2023-07-13T07:45:32;101028.03;;;23.65;57.38
55010;BME280;40903;51.638;7.528;2023-07-13T07:47:58;101036.13;;;23.92;57.40
55010;BME280;40903;51.638;7.528;2023-07-13T07:50:27;101031.06;;;23.98;57.22
55010;BME280;40903;51.638;7.528;2023-07-13T07:52:54;101029.66;;;24.11;55.49
55010;BME280;40903;51.638;7.528;2023-07-13T07:55:21;101029.63;;;24.07;54.23
55010;BME280;40903;51.638;7.528;2023-07-13T07:57:47;101041.97;;;24.32;55.15
55010;BME280;40903;51.638;7.528;2023-07-13T08:00:13;101030.78;;;24.54;53.19
55010;BME280;40903;51.638;7.528;2023-07-13T08:02:39;101033.50;;;24.51;53.86
55010;BME280;40903;51.638;7.528;2023-07-13T08:05:07;101030.06;;;24.87;54.64
55010;BME280;40903;51.638;7.528;2023-07-13T08:07:32;101028.94;;;25.21;54.50
55010;BME280;40903;51.638;7.528;2023-07-13T08:09:57;101041.97;;;25.13;50.54
55010;BME280;40903;51.638;7.528;2023-07-13T08:12:23;101034.97;;;25.26;51.17
55010;BME280;40903;51.638;7.528;2023-07-13T08:14:52;101048.38;;;25.14;49.82
55010;BME280;40903;51.638;7.528;2023-07-13T08:17:23;101045.53;;;25.10;49.89
55010;BME280;40903;51.638;7.528;2023-07-13T08:19:48;101037.72;;;25.23;51.66
55010;BME280;40903;51.638;7.528;2023-07-13T08:22:14;101036.44;;;25.50;51.71
55010;BME280;40903;51.638;7.528;2023-07-13T08:24:40;101040.59;;;25.63;48.89
55010;BME280;40903;51.638;7.528;2023-07-13T08:27:07;101046.72;;;25.42;48.75
55010;BME280;40903;51.638;7.528;2023-07-13T08:29:32;101039.94;;;25.40;47.45
55010;BME280;40903;51.638;7.528;2023-07-13T08:31:58;101038.53;;;25.23;49.15
55010;BME280;40903;51.638;7.528;2023-07-13T08:34:23;101033.09;;;25.04;50.69
55010;BME280;40903;51.638;7.528;2023-07-13T08:36:49;101042.13;;;24.94;51.16
55010;BME280;40903;51.638;7.528;2023-07-13T08:39:14;101037.09;;;25.07;51.56
55010;BME280;40903;51.638;7.528;2023-07-13T08:41:39;101033.72;;;25.20;52.29
55010;BME280;40903;51.638;7.528;2023-07-13T08:44:11;101040.03;;;25.17;50.25
55010;BME280;40903;51.638;7.528;2023-07-13T08:46:42;101037.69;;;25.19;50.50
55010;BME280;40903;51.638;7.528;2023-07-13T08:51:51;101021.28;;;25.47;52.44
55010;BME280;40903;51.638;7.528;2023-07-13T08:54:30;101035.25;;;25.51;48.18
55010;BME280;40903;51.638;7.528;2023-07-13T08:56:57;101019.59;;;25.79;50.22
55010;BME280;40903;51.638;7.528;2023-07-13T08:59:28;101028.63;;;26.02;45.53
55010;BME280;40903;51.638;7.528;2023-07-13T09:09:58;101016.25;;;26.03;48.43
55010;BME280;40903;51.638;7.528;2023-07-13T09:15:25;101025.69;;;25.88;47.94
55010;BME280;40903;51.638;7.528;2023-07-13T09:17:52;101025.38;;;25.60;50.11
55010;BME280;40903;51.638;7.528;2023-07-13T09:20:28;101034.50;;;25.21;48.98
55010;BME280;40903;51.638;7.528;2023-07-13T09:22:56;101031.47;;;24.74;48.07
55010;BME280;40903;51.638;7.528;2023-07-13T09:25:30;101030.16;;;24.64;50.02
55010;BME280;40903;51.638;7.528;2023-07-13T09:27:59;101024.78;;;24.78;50.82
55010;BME280;40903;51.638;7.528;2023-07-13T09:30:30;101026.19;;;25.24;52.63
55010;BME280;40903;51.638;7.528;2023-07-13T09:32:58;101017.50;;;25.69;49.05
55010;BME280;40903;51.638;7.528;2023-07-13T09:35:25;101025.81;;;26.02;50.55
55010;BME280;40903;51.638;7.528;2023-07-13T09:37:58;101028.91;;;26.37;49.04
55010;BME280;40903;51.638;7.528;2023-07-13T09:40:30;101030.44;;;26.88;48.42
55010;BME280;40903;51.638;7.528;2023-07-13T09:43:02;101034.09;;;26.99;46.26
55010;BME280;40903;51.638;7.528;2023-07-13T09:45:33;101028.19;;;27.11;47.69
55010;BME280;40903;51.638;7.528;2023-07-13T09:48:10;101033.41;;;27.16;45.50
55010;BME280;40903;51.638;7.528;2023-07-13T09:50:36;101032.28;;;27.38;44.44
55010;BME280;40903;51.638;7.528;2023-07-13T09:53:02;101047.50;;;27.44;43.13
55010;BME280;40903;51.638;7.528;2023-07-13T09:55:36;101036.94;;;27.06;45.96
55010;BME280;40903;51.638;7.528;2023-07-13T09:58:18;101038.56;;;27.11;45.70
55010;BME280;40903;51.638;7.528;2023-07-13T10:00:57;101038.88;;;26.92;44.69
55010;BME280;40903;51.638;7.528;2023-07-13T10:03:28;101034.13;;;27.03;47.49
55010;BME280;40903;51.638;7.528;2023-07-13T10:06:01;101040.25;;;27.26;46.39
55010;BME280;40903;51.638;7.528;2023-07-13T10:08:29;101044.53;;;27.06;43.37
55010;BME280;40903;51.638;7.528;2023-07-13T10:11:21;101040.13;;;27.05;45.44
55010;BME280;40903;51.638;7.528;2023-07-13T10:14:00;101043.19;;;26.79;42.98
55010;BME280;40903;51.638;7.528;2023-07-13T10:16:31;101039.75;;;27.10;49.10
55010;BME280;40903;51.638;7.528;2023-07-13T10:19:00;101049.44;;;27.19;44.36
55010;BME280;40903;51.638;7.528;2023-07-13T10:21:32;101040.72;;;27.49;45.79
55010;BME280;40903;51.638;7.528;2023-07-13T10:24:21;101053.13;;;27.48;42.51
55010;BME280;40903;51.638;7.528;2023-07-13T10:27:05;101044.69;;;27.34;42.92
55010;BME280;40903;51.638;7.528;2023-07-13T10:29:41;101037.81;;;27.17;47.58
55010;BME280;40903;51.638;7.528;2023-07-13T10:32:10;101041.50;;;27.35;46.34
55010;BME280;40903;51.638;7.528;2023-07-13T10:34:36;101044.03;;;27.72;45.12
55010;BME280;40903;51.638;7.528;2023-07-13T10:37:05;101040.44;;;27.75;43.75
55010;BME280;40903;51.638;7.528;2023-07-13T10:39:32;101048.34;;;27.62;44.52
55010;BME280;40903;51.638;7.528;2023-07-13T10:42:03;101056.69;;;27.38;43.32
55010;BME280;40903;51.638;7.528;2023-07-13T10:44:32;101044.31;;;27.46;46.04
55010;BME280;40903;51.638;7.528;2023-07-13T10:47:10;101048.34;;;27.62;44.39
55010;BME280;40903;51.638;7.528;2023-07-13T10:49:39;101043.25;;;28.03;44.40
55010;BME280;40903;51.638;7.528;2023-07-13T10:58:44;101055.94;;;27.51;45.00
55010;BME280;40903;51.638;7.528;2023-07-13T11:01:14;101060.38;;;27.63;44.34
55010;BME280;40903;51.638;7.528;2023-07-13T11:08:56;101072.47;;;26.92;44.43
55010;BME280;40903;51.638;7.528;2023-07-13T11:18:44;101062.44;;;26.87;45.12
55010;BME280;40903;51.638;7.528;2023-07-13T11:21:25;101065.22;;;26.84;45.47
55010;BME280;40903;51.638;7.528;2023-07-13T11:23:54;101065.00;;;26.52;46.07
55010;BME280;40903;51.638;7.528;2023-07-13T11:26:43;101066.13;;;26.48;45.81
55010;BME280;40903;51.638;7.528;2023-07-13T11:31:40;101058.03;;;25.86;46.94
55010;BME280;40903;51.638;7.528;2023-07-13T11:34:13;101063.13;;;25.84;47.58
55010;BME280;40903;51.638;7.528;2023-07-13T11:36:43;101050.53;;;25.97;46.92
55010;BME280;40903;51.638;7.528;2023-07-13T11:41:58;101047.88;;;26.61;46.34
55010;BME280;40903;51.638;7.528;2023-07-13T11:44:26;101050.22;;;27.13;47.47
55010;BME280;40903;51.638;7.528;2023-07-13T11:46:59;101049.13;;;27.42;46.07
55010;BME280;40903;51.638;7.528;2023-07-13T11:49:29;101047.53;;;27.55;45.80
55010;BME280;40903;51.638;7.528;2023-07-13T11:51:56;101056.44;;;27.81;43.01
55010;BME280;40903;51.638;7.528;2023-07-13T11:54:30;101049.25;;;27.87;43.32
55010;BME280;40903;51.638;7.528;2023-07-13T11:57:05;101056.88;;;28.15;43.86
55010;BME280;40903;51.638;7.528;2023-07-13T11:59:36;101050.06;;;28.26;41.31
55010;BME280;40903;51.638;7.528;2023-07-13T12:02:15;101066.50;;;28.21;40.02
55010;BME280;40903;51.638;7.528;2023-07-13T12:04:42;101052.47;;;28.10;40.83
55010;BME280;40903;51.638;7.528;2023-07-13T12:07:16;101039.63;;;28.13;41.88
55010;BME280;40903;51.638;7.528;2023-07-13T12:09:42;101058.06;;;28.03;39.65
55010;BME280;40903;51.638;7.528;2023-07-13T12:12:17;101048.38;;;27.66;40.21
55010;BME280;40903;51.638;7.528;2023-07-13T12:14:43;101046.84;;;27.72;42.13
55010;BME280;40903;51.638;7.528;2023-07-13T12:17:33;101044.69;;;27.41;40.34
55010;BME280;40903;51.638;7.528;2023-07-13T12:19:57;101038.69;;;27.39;40.22
55010;BME280;40903;51.638;7.528;2023-07-13T12:22:23;101040.31;;;27.47;40.91
55010;BME280;40903;51.638;7.528;2023-07-13T12:24:48;101036.69;;;27.39;42.29
55010;BME280;40903;51.638;7.528;2023-07-13T12:27:27;101040.81;;;27.73;40.04
55010;BME280;40903;51.638;7.528;2023-07-13T12:30:01;101032.44;;;28.01;39.52
55010;BME280;40903;51.638;7.528;2023-07-13T12:32:28;101034.44;;;28.22;40.06
55010;BME280;40903;51.638;7.528;2023-07-13T12:35:01;101035.63;;;28.14;39.42
55010;BME280;40903;51.638;7.528;2023-07-13T12:37:34;101031.66;;;28.11;38.45
55010;BME280;40903;51.638;7.528;2023-07-13T12:40:01;101044.47;;;27.98;37.53
55010;BME280;40903;51.638;7.528;2023-07-13T12:42:32;101027.63;;;28.02;39.82
55010;BME280;40903;51.638;7.528;2023-07-13T12:45:09;101049.28;;;28.50;40.63
55010;BME280;40903;51.638;7.528;2023-07-13T12:47:42;101046.09;;;28.38;36.78
55010;BME280;40903;51.638;7.528;2023-07-13T12:50:17;101048.06;;;28.20;35.75
55010;BME280;40903;51.638;7.528;2023-07-13T12:52:43;101037.28;;;28.32;36.42
55010;BME280;40903;51.638;7.528;2023-07-13T12:55:28;101035.63;;;28.28;36.81
55010;BME280;40903;51.638;7.528;2023-07-13T12:57:58;101051.25;;;27.90;37.32
55010;BME280;40903;51.638;7.528;2023-07-13T13:00:35;101038.84;;;27.84;38.38
55010;BME280;40903;51.638;7.528;2023-07-13T13:03:31;101040.72;;;27.42;38.00
55010;BME280;40903;51.638;7.528;2023-07-13T13:06:05;101042.84;;;28.08;37.81
55010;BME280;40903;51.638;7.528;2023-07-13T13:08:35;101058.88;;;28.70;37.64
55010;BME280;40903;51.638;7.528;2023-07-13T13:11:02;101052.84;;;28.71;37.81
55010;BME280;40903;51.638;7.528;2023-07-13T13:13:27;101054.88;;;28.26;36.19
55010;BME280;40903;51.638;7.528;2023-07-13T13:15:53;101043.22;;;28.31;37.68
55010;BME280;40903;51.638;7.528;2023-07-13T13:18:21;101052.09;;;28.57;37.71
55010;BME280;40903;51.638;7.528;2023-07-13T13:20:48;101041.13;;;29.04;39.41
55010;BME280;40903;51.638;7.528;2023-07-13T13:23:19;101044.66;;;29.26;38.09
55010;BME280;40903;51.638;7.528;2023-07-13T13:25:49;101055.00;;;29.43;35.44
55010;BME280;40903;51.638;7.528;2023-07-13T13:28:17;101054.81;;;28.88;36.59
55010;BME280;40903;51.638;7.528;2023-07-13T13:30:44;101058.50;;;28.51;36.29